Time;durP1;ratioP1;P1;durP2;ratioP2;P2;SDS_P1;SDS_P2;PMS_P1;PMS_P2;Temp;Humidity;BMP_temperature;BMP_pressure;BME280_temperature;BME280_humidity;BME280_pressure;Samples;Min_cycle;Max_cycle;Signal;HPM_P1;HPM_P2
2022/04/24 00:01:42;;;;;;;7.70;7.50;;;;;;;11.66;58.96;99627.50;5115625;28;20607;-70
2022/04/24 00:04:09;;;;;;;8.40;8.20;;;;;;;11.56;59.28;99623.75;5115265;28;20193;-70
2022/04/24 00:06:36;;;;;;;8.20;8.00;;;;;;;11.42;59.83;99621.16;5115150;28;20208;-70
2022/04/24 00:09:02;;;;;;;8.73;8.23;;;;;;;11.51;59.40;99615.34;5114366;28;20201;-69
2022/04/24 00:11:30;;;;;;;8.67;8.47;;;;;;;11.41;59.90;99619.47;5097686;28;20250;-69
2022/04/24 00:13:57;;;;;;;8.80;8.43;;;;;;;11.42;60.19;99623.78;5115373;28;20242;-69
2022/04/24 00:16:23;;;;;;;8.77;8.37;;;;;;;11.30;60.44;99618.38;5115301;28;20344;-70
2022/04/24 00:18:50;;;;;;;8.03;7.83;;;;;;;11.29;60.62;99619.31;5114983;28;20212;-70
2022/04/24 00:21:16;;;;;;;8.50;8.03;;;;;;;11.24;60.91;99615.28;5095920;28;20197;-69
2022/04/24 00:23:43;;;;;;;8.50;8.20;;;;;;;11.30;60.56;99615.75;5114924;28;20243;-70
2022/04/24 00:26:10;;;;;;;9.53;9.00;;;;;;;11.24;60.74;99610.88;5114270;28;20262;-69
2022/04/24 00:28:36;;;;;;;8.57;8.27;;;;;;;11.26;60.60;99614.25;5115010;28;20255;-69
2022/04/24 00:31:02;;;;;;;8.57;8.20;;;;;;;10.99;61.50;99606.28;5115287;28;20212;-69
2022/04/24 00:33:29;;;;;;;9.03;8.67;;;;;;;11.00;61.76;99613.25;5112461;28;20674;-69
2022/04/24 00:35:55;;;;;;;8.87;8.47;;;;;;;10.93;61.63;99609.31;5114818;28;20217;-70
2022/04/24 00:38:22;;;;;;;9.50;8.67;;;;;;;10.96;61.67;99606.50;5114855;28;20246;-70
2022/04/24 00:40:48;;;;;;;9.00;8.80;;;;;;;10.93;61.70;99606.69;5114652;28;20250;-70
2022/04/24 00:43:15;;;;;;;9.63;9.23;;;;;;;10.90;61.86;99601.63;5114515;28;20192;-70
2022/04/24 00:46:11;;;;;;;9.03;8.60;;;;;;;10.89;61.79;99599.09;5113469;28;20285;-70
2022/04/24 00:48:40;;;;;;;8.40;8.17;;;;;;;10.90;61.92;99590.31;5114490;28;20197;-70
2022/04/24 00:51:11;;;;;;;9.30;8.67;;;;;;;10.96;61.44;99593.41;5114902;28;20180;-70
2022/04/24 00:53:37;;;;;;;8.77;8.23;;;;;;;10.87;61.98;99596.59;5113474;28;20241;-69
2022/04/24 00:56:05;;;;;;;9.20;8.90;;;;;;;10.77;62.35;99592.81;5113163;28;20221;-69
2022/04/24 00:58:32;;;;;;;8.90;8.60;;;;;;;10.67;62.55;99600.41;5114521;28;20181;-70
2022/04/24 01:01:00;;;;;;;9.17;8.87;;;;;;;10.62;62.93;99599.81;5114494;28;20185;-71
2022/04/24 01:03:28;;;;;;;9.33;8.93;;;;;;;10.63;62.91;99604.13;5114468;28;20173;-70
2022/04/24 01:05:55;;;;;;;7.63;7.43;;;;;;;10.57;63.13;99603.63;5114048;28;20189;-70
2022/04/24 01:08:21;;;;;;;7.90;7.70;;;;;;;10.59;63.01;99607.88;5112150;28;20254;-69
2022/04/24 01:10:48;;;;;;;9.20;8.90;;;;;;;10.58;62.85;99602.72;5114566;28;20192;-70
2022/04/24 01:13:14;;;;;;;10.30;9.60;;;;;;;10.56;62.80;99596.72;5113148;28;20181;-69
2022/04/24 01:15:40;;;;;;;9.50;9.20;;;;;;;10.62;62.84;99607.66;5114177;28;20245;-70
2022/04/24 01:18:08;;;;;;;9.73;9.43;;;;;;;10.51;63.29;99604.88;5114497;28;20237;-70
2022/04/24 01:20:35;;;;;;;11.63;8.73;;;;;;;10.41;63.35;99612.38;5112995;28;20284;-69
2022/04/24 01:23:01;;;;;;;9.27;8.93;;;;;;;10.31;63.84;99600.78;5113921;28;20181;-69
2022/04/24 01:25:28;;;;;;;9.00;8.50;;;;;;;10.36;63.93;99604.00;5113846;28;20218;-70
2022/04/24 01:27:54;;;;;;;9.27;8.87;;;;;;;10.34;63.84;99599.75;5113754;28;20216;-70
2022/04/24 01:30:20;;;;;;;9.70;9.40;;;;;;;10.33;63.98;99600.69;5113966;28;20220;-70
2022/04/24 01:32:47;;;;;;;9.77;9.37;;;;;;;10.26;64.32;99599.38;5112041;28;20223;-69
2022/04/24 01:35:15;;;;;;;9.33;9.03;;;;;;;10.12;64.86;99606.19;5114440;28;20184;-70
2022/04/24 01:37:43;;;;;;;9.87;9.47;;;;;;;10.24;64.33;99602.06;5114400;28;20582;-70
2022/04/24 01:40:10;;;;;;;9.67;9.23;;;;;;;10.18;64.34;99595.38;5113965;28;20187;-70
2022/04/24 01:42:36;;;;;;;9.47;9.07;;;;;;;10.16;64.64;99594.63;5113666;28;20242;-70
2022/04/24 01:45:03;;;;;;;9.37;8.97;;;;;;;10.06;65.09;99598.69;5112299;28;20188;-69
2022/04/24 01:47:29;;;;;;;9.37;8.87;;;;;;;10.03;65.03;99600.66;5113579;28;20205;-69
2022/04/24 01:49:56;;;;;;;9.57;9.07;;;;;;;9.95;65.62;99600.25;5114060;28;20238;-69
2022/04/24 01:52:22;;;;;;;9.87;9.40;;;;;;;10.04;65.05;99594.50;5113835;28;20249;-70
2022/04/24 01:54:49;;;;;;;13.00;9.23;;;;;;;9.94;65.57;99599.41;5113539;28;20232;-70
2022/04/24 01:57:15;;;;;;;9.47;8.97;;;;;;;9.99;65.42;99591.28;5112743;28;20628;-69
2022/04/24 01:59:41;;;;;;;9.73;9.30;;;;;;;9.85;66.10;99603.38;5113469;28;20660;-69
2022/04/24 02:02:08;;;;;;;10.43;9.83;;;;;;;9.77;66.57;99602.13;5114200;28;20249;-69
2022/04/24 02:04:35;;;;;;;9.77;9.47;;;;;;;9.76;66.43;99598.66;5117605;28;20197;-69
2022/04/24 02:07:01;;;;;;;10.00;9.60;;;;;;;9.90;65.69;99596.13;5117505;28;20227;-69
2022/04/24 02:09:28;;;;;;;10.07;9.57;;;;;;;9.78;66.34;99594.19;5116180;28;20210;-70
2022/04/24 02:11:54;;;;;;;9.67;9.23;;;;;;;9.80;66.23;99600.19;5117720;28;20240;-70
2022/04/24 02:14:21;;;;;;;10.93;10.33;;;;;;;9.82;66.47;99590.47;5117441;28;20548;-70
2022/04/24 02:16:47;;;;;;;10.57;10.07;;;;;;;9.73;66.50;99596.22;5117869;28;20261;-70
2022/04/24 02:19:14;;;;;;;11.47;10.57;;;;;;;9.73;66.71;99592.78;5117593;28;20621;-70
2022/04/24 02:21:40;;;;;;;10.23;9.73;;;;;;;9.92;66.20;99598.63;5116051;28;20196;-69
2022/04/24 02:24:07;;;;;;;10.40;9.80;;;;;;;9.75;66.48;99603.97;5117239;28;20183;-70
2022/04/24 02:26:33;;;;;;;10.93;10.20;;;;;;;9.77;66.75;99609.97;5117442;28;20688;-69
2022/04/24 02:28:59;;;;;;;10.60;10.13;;;;;;;9.63;67.17;99605.50;5117108;28;20209;-70
2022/04/24 02:31:26;;;;;;;10.93;10.30;;;;;;;9.60;67.37;99598.69;5116507;28;20230;-70
2022/04/24 02:33:52;;;;;;;11.10;10.47;;;;;;;9.62;67.47;99609.88;5117080;28;20278;-70
2022/04/24 02:36:19;;;;;;;11.77;10.87;;;;;;;9.61;67.12;99602.97;5116981;28;20207;-70
2022/04/24 02:38:45;;;;;;;12.80;11.90;;;;;;;9.57;67.51;99598.84;5116982;28;20188;-70
2022/04/24 02:41:12;;;;;;;11.53;10.87;;;;;;;9.62;67.46;99599.44;5117196;28;20599;-70
2022/04/24 02:43:38;;;;;;;12.27;11.07;;;;;;;9.54;67.89;99603.41;5115211;28;20599;-70
2022/04/24 02:46:05;;;;;;;11.70;11.10;;;;;;;9.35;68.92;99609.63;5115922;28;20223;-70
2022/04/24 02:48:31;;;;;;;11.67;11.00;;;;;;;9.37;68.77;99588.66;5117002;28;20189;-70
2022/04/24 02:50:58;;;;;;;12.67;11.57;;;;;;;9.37;68.82;99601.72;5116654;28;20217;-70
2022/04/24 02:53:24;;;;;;;11.70;11.03;;;;;;;9.36;68.68;99598.25;5116641;28;20223;-70
2022/04/24 02:55:51;;;;;;;12.03;11.23;;;;;;;9.38;68.71;99598.16;5115376;28;20261;-70
2022/04/24 02:58:20;;;;;;;12.17;11.13;;;;;;;9.33;69.18;99595.81;5117063;28;20194;-69
2022/04/24 03:00:50;;;;;;;11.20;10.53;;;;;;;9.34;69.05;99605.31;5116774;28;20214;-69
2022/04/24 03:03:20;;;;;;;11.47;10.87;;;;;;;9.37;68.96;99602.56;5117071;28;20180;-69
2022/04/24 03:05:48;;;;;;;11.60;11.00;;;;;;;9.32;69.49;99603.72;5115116;28;20247;-69
2022/04/24 03:08:17;;;;;;;11.83;11.07;;;;;;;9.36;69.53;99605.25;5115848;28;20274;-70
2022/04/24 03:10:44;;;;;;;12.73;12.00;;;;;;;9.31;69.68;99607.25;5116544;28;20205;-70
2022/04/24 03:13:11;;;;;;;12.53;11.70;;;;;;;9.16;70.16;99606.31;5116087;28;20195;-70
2022/04/24 03:15:39;;;;;;;13.10;12.20;;;;;;;9.12;70.35;99598.72;5115530;28;20659;-70
2022/04/24 03:18:06;;;;;;;12.30;11.40;;;;;;;9.13;70.37;99598.63;5114771;28;20194;-69
2022/04/24 03:20:32;;;;;;;12.30;11.53;;;;;;;8.94;71.24;99598.78;5116119;28;20184;-70
2022/04/24 03:22:58;;;;;;;12.43;11.27;;;;;;;9.12;70.69;99594.34;5116231;28;20191;-70
2022/04/24 03:25:25;;;;;;;12.80;11.80;;;;;;;8.93;71.48;99591.88;5116370;28;20232;-70
2022/04/24 03:27:51;;;;;;;12.17;11.37;;;;;;;9.06;71.29;99599.88;5115912;28;20201;-70
2022/04/24 03:30:18;;;;;;;13.00;12.20;;;;;;;9.01;71.39;99597.53;5115388;28;20596;-69
2022/04/24 03:32:44;;;;;;;11.50;10.83;;;;;;;8.93;71.77;99585.78;5115949;28;20597;-69
2022/04/24 03:35:11;;;;;;;13.20;11.90;;;;;;;9.01;71.69;99594.09;5115884;28;20680;-69
2022/04/24 03:37:38;;;;;;;12.03;11.23;;;;;;;9.00;71.81;99595.84;5115164;28;20251;-70
2022/04/24 03:40:07;;;;;;;13.53;12.33;;;;;;;8.97;71.73;99590.78;5115444;28;20186;-68
2022/04/24 03:42:35;;;;;;;12.40;11.47;;;;;;;8.86;72.39;99597.47;5115188;28;20188;-70
2022/04/24 03:45:06;;;;;;;12.27;11.37;;;;;;;8.88;72.64;99591.28;5116193;28;20185;-70
2022/04/24 03:47:32;;;;;;;11.43;10.53;;;;;;;8.76;73.09;99594.50;5115633;28;20759;-70
2022/04/24 03:49:59;;;;;;;13.87;12.53;;;;;;;8.74;73.47;99596.38;5115713;28;20238;-70
2022/04/24 03:52:25;;;;;;;11.80;11.03;;;;;;;8.69;73.45;99600.97;5114019;28;20234;-68
2022/04/24 03:54:52;;;;;;;12.40;11.50;;;;;;;8.66;73.77;99598.53;5115480;28;20549;-69
2022/04/24 03:57:18;;;;;;;12.53;11.43;;;;;;;8.62;73.89;99590.00;5115386;28;20256;-69
2022/04/24 03:59:44;;;;;;;11.33;10.47;;;;;;;8.64;74.16;99598.59;5115640;28;20239;-69
2022/04/24 04:02:11;;;;;;;11.50;10.90;;;;;;;8.61;74.36;99592.69;5115366;28;20181;-69
2022/04/24 04:04:38;;;;;;;13.93;12.47;;;;;;;8.54;74.67;99593.00;5114546;28;20193;-69
2022/04/24 04:07:05;;;;;;;11.03;10.43;;;;;;;8.71;74.25;99593.91;5115456;28;20202;-69
2022/04/24 04:09:32;;;;;;;11.10;10.47;;;;;;;8.57;74.76;99591.16;5115137;28;20202;-69
2022/04/24 04:11:59;;;;;;;11.30;10.40;;;;;;;8.57;74.61;99596.38;5115482;28;20211;-69
2022/04/24 04:14:25;;;;;;;11.57;10.77;;;;;;;8.49;74.95;99601.97;5113524;28;20190;-70
2022/04/24 04:16:52;;;;;;;12.03;11.23;;;;;;;8.53;75.06;99599.16;5115014;28;20555;-70
2022/04/24 04:19:19;;;;;;;10.63;10.07;;;;;;;8.55;74.92;99602.50;5115308;28;20182;-69
2022/04/24 04:21:45;;;;;;;11.47;10.70;;;;;;;8.49;74.98;99605.44;5114933;28;20663;-70
2022/04/24 04:24:12;;;;;;;11.50;10.80;;;;;;;8.58;74.90;99608.53;5113253;28;20198;-69
2022/04/24 04:26:39;;;;;;;11.30;10.53;;;;;;;8.47;75.44;99607.28;5114805;28;20213;-69
2022/04/24 04:29:05;;;;;;;10.83;10.23;;;;;;;8.46;75.43;99604.75;5114234;28;20199;-69
2022/04/24 04:31:32;;;;;;;11.60;10.90;;;;;;;8.47;75.25;99596.00;5115389;28;20177;-69
2022/04/24 04:33:58;;;;;;;10.87;10.07;;;;;;;8.57;75.24;99606.81;5114868;28;20720;-69
2022/04/24 04:36:25;;;;;;;10.23;9.73;;;;;;;8.42;75.52;99606.66;5113615;28;20629;-69
2022/04/24 04:38:51;;;;;;;11.13;10.37;;;;;;;8.50;75.41;99609.75;5114783;28;20238;-69
2022/04/24 04:41:17;;;;;;;10.40;9.80;;;;;;;8.44;75.39;99612.66;5115142;28;20184;-69
2022/04/24 04:43:44;;;;;;;10.97;10.37;;;;;;;8.46;75.56;99621.25;5114573;28;20165;-69
2022/04/24 04:46:10;;;;;;;10.57;10.03;;;;;;;8.42;75.75;99619.69;5114674;28;20258;-69
2022/04/24 04:48:37;;;;;;;10.93;10.07;;;;;;;8.54;75.18;99621.69;5113976;28;20193;-69
2022/04/24 04:51:04;;;;;;;9.77;9.20;;;;;;;8.40;75.57;99618.94;5114875;28;20201;-69
2022/04/24 04:53:31;;;;;;;10.43;9.83;;;;;;;8.50;75.59;99624.53;5114363;28;20192;-70
2022/04/24 04:55:58;;;;;;;10.13;9.50;;;;;;;8.46;75.54;99630.84;5113728;28;20214;-69
2022/04/24 04:58:24;;;;;;;13.57;10.60;;;;;;;8.42;75.99;99630.13;5114518;28;20193;-70
2022/04/24 05:00:51;;;;;;;9.33;8.97;;;;;;;8.45;75.46;99627.38;5113645;28;20651;-70
2022/04/24 05:03:17;;;;;;;10.27;9.57;;;;;;;8.54;75.81;99631.28;5114451;28;20518;-69
2022/04/24 05:05:44;;;;;;;10.13;9.57;;;;;;;8.58;75.49;99634.59;5112818;28;20527;-68
2022/04/24 05:08:10;;;;;;;10.00;9.50;;;;;;;8.65;75.09;99635.97;5094007;28;20216;-69
2022/04/24 05:10:37;;;;;;;10.37;9.87;;;;;;;8.70;74.73;99642.63;5093673;28;20193;-69
2022/04/24 05:13:03;;;;;;;9.17;8.77;;;;;;;8.61;75.22;99644.88;5094605;28;20190;-68
2022/04/24 05:15:30;;;;;;;9.27;8.87;;;;;;;8.83;74.29;99646.31;5114563;28;20181;-69
2022/04/24 05:17:56;;;;;;;9.47;9.00;;;;;;;8.87;74.43;99649.63;5113429;28;20258;-68
2022/04/24 05:20:23;;;;;;;10.20;9.60;;;;;;;8.86;74.58;99645.34;5093529;28;20785;-69
2022/04/24 05:22:49;;;;;;;9.67;8.80;;;;;;;8.88;74.15;99648.69;5094134;28;20170;-69
2022/04/24 05:25:16;;;;;;;9.60;9.00;;;;;;;8.89;73.57;99646.94;5112143;28;20667;-70
2022/04/24 05:27:43;;;;;;;8.73;8.30;;;;;;;8.95;73.46;99649.22;5113892;28;20208;-70
2022/04/24 05:30:09;;;;;;;9.73;9.33;;;;;;;8.93;74.50;99649.31;5114520;28;20190;-70
2022/04/24 05:32:46;;;;;;;10.33;9.63;;;;;;;9.02;73.13;99645.38;5114312;28;20189;-70
2022/04/24 05:35:13;;;;;;;9.30;8.90;;;;;;;9.01;73.75;99647.13;5112496;28;20590;-68
2022/04/24 05:37:40;;;;;;;9.87;9.23;;;;;;;9.13;73.88;99655.25;5113948;28;20649;-70
2022/04/24 05:40:07;;;;;;;8.63;8.23;;;;;;;9.28;72.83;99652.66;5113941;28;20212;-69
2022/04/24 05:42:34;;;;;;;9.53;8.93;;;;;;;9.30;72.23;99665.66;5113935;28;20246;-70
2022/04/24 05:45:01;;;;;;;9.00;8.47;;;;;;;9.25;72.91;99660.66;5112860;28;20267;-69
2022/04/24 05:47:27;;;;;;;10.33;9.50;;;;;;;9.37;72.54;99662.63;5112847;28;20218;-69
2022/04/24 05:49:54;;;;;;;10.17;9.27;;;;;;;9.35;71.88;99666.25;5113543;28;20196;-69
2022/04/24 05:52:21;;;;;;;9.73;9.13;;;;;;;9.35;71.97;99668.84;5113843;28;20231;-69
2022/04/24 05:54:47;;;;;;;10.40;9.13;;;;;;;9.35;71.47;99664.47;5113804;28;20190;-70
2022/04/24 05:57:14;;;;;;;9.27;8.60;;;;;;;9.41;71.75;99665.91;5113962;28;20206;-69
2022/04/24 05:59:40;;;;;;;9.90;9.30;;;;;;;9.44;71.96;99671.00;5112935;28;20189;-70
2022/04/24 06:02:07;;;;;;;10.10;9.33;;;;;;;9.43;71.70;99666.69;5113791;28;20191;-69
2022/04/24 06:04:33;;;;;;;9.63;8.87;;;;;;;9.49;71.74;99660.28;5113066;28;20200;-70
2022/04/24 06:07:00;;;;;;;9.30;8.60;;;;;;;9.55;71.89;99665.19;5113414;28;20643;-70
2022/04/24 06:09:26;;;;;;;10.40;9.80;;;;;;;9.60;70.76;99669.25;5111095;28;20249;-70
2022/04/24 06:11:58;;;;;;;18.40;9.47;;;;;;;9.64;70.37;99664.66;5113682;28;20197;-69
2022/04/24 06:14:25;;;;;;;9.43;8.63;;;;;;;9.68;70.73;99665.38;5113614;28;20176;-69
2022/04/24 06:16:52;;;;;;;9.30;8.90;;;;;;;9.84;71.17;99666.19;5113490;28;20211;-70
2022/04/24 06:19:18;;;;;;;10.43;8.80;;;;;;;9.86;70.27;99659.97;5112590;28;20199;-69
2022/04/24 06:21:45;;;;;;;9.03;8.37;;;;;;;9.97;69.69;99656.75;5109495;28;20232;-71
2022/04/24 06:24:14;;;;;;;8.97;8.67;;;;;;;9.98;69.44;99661.06;5111236;28;20236;-70
2022/04/24 06:26:44;;;;;;;9.57;8.97;;;;;;;9.97;69.49;99664.59;5109618;28;20220;-70
2022/04/24 06:29:11;;;;;;;10.47;9.77;;;;;;;10.05;69.85;99664.16;5112228;28;20196;-70
2022/04/24 06:31:37;;;;;;;9.87;9.17;;;;;;;10.17;69.35;99663.50;5113468;28;20208;-70
2022/04/24 06:34:04;;;;;;;9.73;9.20;;;;;;;10.16;69.07;99665.25;5111899;28;20257;-71
2022/04/24 06:36:31;;;;;;;8.70;8.33;;;;;;;10.27;68.43;99669.06;5112108;28;20219;-70
2022/04/24 06:38:57;;;;;;;8.40;8.13;;;;;;;10.41;67.97;99662.09;5113216;28;20189;-70
2022/04/24 06:41:24;;;;;;;10.53;9.03;;;;;;;10.34;68.23;99670.41;5113063;28;20184;-71
2022/04/24 06:43:50;;;;;;;10.27;9.30;;;;;;;10.39;67.89;99668.38;5113101;28;20214;-71
2022/04/24 06:46:18;;;;;;;10.43;9.43;;;;;;;10.48;68.23;99667.84;5108499;28;20276;-69
2022/04/24 06:48:45;;;;;;;10.33;9.33;;;;;;;10.47;67.12;99676.63;5114600;28;20203;-69
2022/04/24 06:51:11;;;;;;;9.63;9.13;;;;;;;10.45;67.22;99670.63;5115417;28;20273;-70
2022/04/24 06:53:39;;;;;;;9.80;9.40;;;;;;;10.43;67.29;99688.22;5115922;28;20196;-70
2022/04/24 06:56:06;;;;;;;10.10;9.43;;;;;;;10.45;67.04;99687.19;5116837;28;20249;-71
2022/04/24 06:58:32;;;;;;;10.50;9.90;;;;;;;10.60;66.62;99676.75;5116047;28;20195;-71
2022/04/24 07:01:06;;;;;;;8.87;8.47;;;;;;;10.71;67.45;99675.19;5116840;28;20177;-70
2022/04/24 07:03:33;;;;;;;9.30;8.90;;;;;;;10.91;65.64;99681.03;5115296;28;20197;-70
2022/04/24 07:06:03;;;;;;;9.73;9.20;;;;;;;11.02;66.27;99676.00;5116781;28;20597;-72
2022/04/24 07:08:29;;;;;;;9.77;9.23;;;;;;;11.12;65.47;99674.50;5116297;28;20241;-70
2022/04/24 07:10:56;;;;;;;10.07;9.53;;;;;;;11.21;66.40;99671.31;5116285;28;20208;-71
2022/04/24 07:13:23;;;;;;;9.23;8.83;;;;;;;11.28;65.19;99677.88;5115087;28;20203;-71
2022/04/24 07:15:51;;;;;;;9.90;9.47;;;;;;;11.34;64.45;99667.97;5116095;28;20192;-71
2022/04/24 07:18:18;;;;;;;9.93;9.33;;;;;;;11.56;64.54;99666.53;5116546;28;20612;-71
2022/04/24 07:20:44;;;;;;;10.53;9.67;;;;;;;11.50;64.28;99673.94;5116476;28;20181;-70
2022/04/24 07:23:11;;;;;;;9.30;8.90;;;;;;;11.69;63.81;99679.72;5114420;28;20242;-69
2022/04/24 07:25:43;;;;;;;10.67;10.10;;;;;;;11.87;64.15;99674.31;5114925;28;20192;-70
2022/04/24 07:28:14;;;;;;;10.37;9.77;;;;;;;12.08;64.77;99676.41;5115446;28;20193;-69
2022/04/24 07:30:41;;;;;;;10.13;9.53;;;;;;;12.26;62.57;99679.63;5112405;28;20270;-69
2022/04/24 07:33:08;;;;;;;9.23;8.83;;;;;;;12.20;61.81;99685.25;5113356;28;20246;-70
2022/04/24 07:35:36;;;;;;;10.57;10.03;;;;;;;12.35;62.42;99679.00;5113920;28;20205;-70
2022/04/24 07:38:03;;;;;;;10.60;9.97;;;;;;;12.51;61.70;99667.53;5116016;28;20196;-70
2022/04/24 07:40:32;;;;;;;10.93;10.17;;;;;;;12.60;60.28;99677.41;5114218;28;20189;-71
2022/04/24 07:43:00;;;;;;;10.50;10.03;;;;;;;12.63;60.75;99674.56;5115736;28;20192;-71
2022/04/24 07:45:32;;;;;;;10.13;9.23;;;;;;;12.74;60.19;99687.84;5115601;28;20182;-71
2022/04/24 07:48:00;;;;;;;9.77;9.33;;;;;;;12.76;61.87;99685.09;5114749;28;20208;-71
2022/04/24 07:50:29;;;;;;;11.77;10.63;;;;;;;12.69;59.37;99679.41;5115775;28;20233;-71
2022/04/24 07:52:57;;;;;;;9.87;9.43;;;;;;;12.72;60.73;99683.66;5112706;28;20197;-71
2022/04/24 07:55:24;;;;;;;10.33;9.50;;;;;;;12.95;60.93;99689.03;5112233;28;20243;-70
2022/04/24 07:57:53;;;;;;;10.53;9.90;;;;;;;13.18;60.56;99694.50;5108181;28;20256;-71
2022/04/24 08:00:26;;;;;;;10.90;10.30;;;;;;;13.21;59.17;99689.06;5096708;28;20635;-71
2022/04/24 08:02:57;;;;;;;10.87;10.27;;;;;;;13.31;58.45;99689.28;5113304;28;20196;-70
2022/04/24 08:05:28;;;;;;;9.90;9.37;;;;;;;13.12;59.29;99694.91;5115552;28;20185;-71
2022/04/24 08:07:57;;;;;;;11.50;10.60;;;;;;;13.03;58.93;99692.94;5115002;28;20209;-70
2022/04/24 08:10:26;;;;;;;11.43;10.73;;;;;;;12.89;59.23;99693.84;5113448;28;20239;-69
2022/04/24 08:12:53;;;;;;;9.97;9.37;;;;;;;12.89;59.28;99689.44;5114395;28;20257;-71
2022/04/24 08:15:20;;;;;;;11.33;10.73;;;;;;;12.92;58.76;99689.22;5114166;28;20234;-69
2022/04/24 08:17:46;;;;;;;13.27;11.93;;;;;;;13.00;58.85;99695.75;5114469;28;20585;-69
2022/04/24 08:20:15;;;;;;;12.30;11.60;;;;;;;13.03;58.46;99692.94;5115291;28;20169;-70
2022/04/24 08:22:44;;;;;;;10.90;10.33;;;;;;;13.04;59.21;99689.34;5109423;28;20178;-68
2022/04/24 08:25:14;;;;;;;11.33;10.43;;;;;;;13.20;58.87;99690.00;5094487;28;20190;-69
2022/04/24 08:27:41;;;;;;;11.67;10.80;;;;;;;13.42;58.64;99684.94;5112572;28;20246;-69
2022/04/24 08:30:09;;;;;;;11.50;10.33;;;;;;;13.65;58.97;99687.78;5110315;28;20786;-68
2022/04/24 08:32:37;;;;;;;12.27;11.43;;;;;;;13.74;58.34;99692.38;5113504;28;20185;-69
2022/04/24 08:35:05;;;;;;;12.77;11.57;;;;;;;13.80;57.94;99699.84;5114565;28;20189;-69
2022/04/24 08:37:33;;;;;;;12.37;11.20;;;;;;;13.77;57.24;99697.41;5112063;28;20330;-71
2022/04/24 08:39:59;;;;;;;12.67;10.37;;;;;;;13.67;56.89;99688.50;5100273;28;20253;-70
2022/04/24 08:42:26;;;;;;;11.80;10.90;;;;;;;13.88;59.39;99689.59;5114381;28;20192;-69
2022/04/24 08:44:57;;;;;;;11.60;10.80;;;;;;;13.87;56.34;99692.34;5114822;28;20177;-69
2022/04/24 08:47:25;;;;;;;11.77;10.77;;;;;;;13.88;57.40;99689.59;5113464;28;20258;-69
2022/04/24 08:49:59;;;;;;;12.97;11.90;;;;;;;13.90;58.16;99692.97;5113837;28;20187;-68
2022/04/24 08:52:28;;;;;;;11.83;10.93;;;;;;;14.04;57.61;99690.19;5114713;28;20169;-69
2022/04/24 08:54:56;;;;;;;11.40;10.70;;;;;;;14.17;56.55;99690.13;5113659;28;21493;-70
2022/04/24 08:57:26;;;;;;;11.60;10.97;;;;;;;14.25;56.61;99692.22;5114165;28;20237;-69
2022/04/24 08:59:54;;;;;;;19.67;12.10;;;;;;;14.34;55.48;99691.53;5112506;28;20210;-67
2022/04/24 09:02:41;;;;;;;13.07;11.90;;;;;;;14.29;55.32;99691.06;5112495;28;20280;-68
2022/04/24 09:05:08;;;;;;;13.07;11.97;;;;;;;14.33;55.98;99695.97;5113469;28;20236;-69
2022/04/24 09:07:35;;;;;;;14.10;12.97;;;;;;;14.45;55.51;99688.97;5111659;28;20262;-69
2022/04/24 09:10:05;;;;;;;12.77;11.87;;;;;;;14.59;55.58;99685.34;5110671;28;20192;-68
2022/04/24 09:12:32;;;;;;;13.57;12.50;;;;;;;14.62;53.62;99692.16;5113982;28;20651;-70
2022/04/24 09:14:59;;;;;;;15.77;13.07;;;;;;;14.58;53.68;99699.47;5114044;28;20234;-70
2022/04/24 09:17:32;;;;;;;14.87;13.77;;;;;;;14.58;53.66;99688.94;5113996;28;20257;-70
2022/04/24 09:20:00;;;;;;;12.67;11.87;;;;;;;14.68;55.69;99692.56;5114529;28;20184;-70
2022/04/24 09:22:27;;;;;;;14.73;13.57;;;;;;;14.52;53.76;99689.38;5114185;28;20178;-70
2022/04/24 09:25:01;;;;;;;14.97;13.47;;;;;;;14.62;55.39;99689.53;5111290;28;21465;-69
2022/04/24 09:27:30;;;;;;;14.10;12.67;;;;;;;14.82;53.26;99686.25;5110092;28;20231;-69
2022/04/24 09:30:01;;;;;;;13.90;13.07;;;;;;;15.00;53.16;99674.31;5103937;28;20189;-70
2022/04/24 09:32:30;;;;;;;14.10;12.90;;;;;;;14.93;53.14;99678.38;5114296;28;20205;-70
2022/04/24 09:34:57;;;;;;;27.73;14.03;;;;;;;15.05;53.43;99677.44;5112968;28;20629;-69
2022/04/24 09:37:24;;;;;;;20.97;13.40;;;;;;;15.12;53.08;99683.91;5112092;28;20763;-69
2022/04/24 09:39:52;;;;;;;12.90;11.93;;;;;;;15.37;54.04;99674.97;5113691;28;20205;-69
2022/04/24 09:42:20;;;;;;;13.20;12.27;;;;;;;15.35;53.08;99676.00;5113953;28;20230;-70
2022/04/24 09:44:52;;;;;;;12.73;11.93;;;;;;;15.30;52.05;99672.91;5113949;28;20193;-70
2022/04/24 09:47:39;;;;;;;13.43;12.07;;;;;;;15.49;51.50;99677.56;5111110;28;20213;-69
2022/04/24 09:50:10;;;;;;;12.23;11.53;;;;;;;15.47;50.79;99685.63;5113815;28;20288;-69
2022/04/24 09:52:38;;;;;;;13.73;11.90;;;;;;;15.28;51.57;99682.72;5111164;28;20205;-69
2022/04/24 09:55:05;;;;;;;13.70;12.47;;;;;;;15.41;51.29;99672.91;5112903;28;20249;-68
2022/04/24 09:57:32;;;;;;;13.20;12.30;;;;;;;15.49;52.27;99678.41;5111548;28;20247;-68
2022/04/24 09:59:59;;;;;;;11.67;10.97;;;;;;;15.81;51.70;99675.09;5112096;28;20191;-72
2022/04/24 10:02:26;;;;;;;13.53;12.10;;;;;;;16.00;51.40;99677.06;5112597;28;20200;-71
2022/04/24 10:04:53;;;;;;;14.10;13.00;;;;;;;16.06;52.80;99666.84;5113043;28;20276;-71
2022/04/24 10:07:21;;;;;;;13.10;12.30;;;;;;;16.17;49.96;99676.56;5113460;28;20747;-72
2022/04/24 10:09:47;;;;;;;17.93;12.23;;;;;;;15.95;49.44;99672.19;5112108;28;20197;-71
2022/04/24 10:12:21;;;;;;;15.00;12.67;;;;;;;16.02;51.15;99683.94;5109217;28;20205;-70
2022/04/24 10:14:59;;;;;;;12.50;11.70;;;;;;;15.92;50.81;99673.25;5106507;28;20188;-71
2022/04/24 10:17:50;;;;;;;14.80;12.73;;;;;;;16.15;50.08;99676.69;5104985;28;20213;-70
2022/04/24 10:20:22;;;;;;;11.37;10.63;;;;;;;16.22;49.47;99688.44;5113018;28;20170;-71
2022/04/24 10:22:52;;;;;;;12.93;12.10;;;;;;;16.32;50.39;99680.59;5115357;28;20234;-70
2022/04/24 10:25:29;;;;;;;12.30;11.60;;;;;;;16.00;49.76;99680.53;5117856;28;20173;-70
2022/04/24 10:27:56;;;;;;;12.27;11.47;;;;;;;15.98;49.65;99687.75;5118506;28;20300;-72
2022/04/24 10:30:25;;;;;;;12.07;10.90;;;;;;;16.24;51.56;99680.38;5117154;28;20220;-71
2022/04/24 10:33:28;;;;;;;11.43;10.80;;;;;;;16.56;49.93;99675.09;5117166;28;20607;-71
2022/04/24 10:35:59;;;;;;;12.03;11.17;;;;;;;16.47;47.27;99679.31;5117170;28;20177;-71
2022/04/24 10:38:28;;;;;;;12.03;11.23;;;;;;;16.39;47.01;99681.78;5117159;28;20671;-71
2022/04/24 10:40:59;;;;;;;12.23;11.17;;;;;;;16.45;47.14;99697.13;5116997;28;20254;-70
2022/04/24 10:43:40;;;;;;;11.33;10.80;;;;;;;16.42;46.59;99697.34;5117261;28;20298;-71
2022/04/24 10:46:20;;;;;;;11.33;10.50;;;;;;;16.53;47.35;99670.06;5116870;28;20205;-71
2022/04/24 10:48:48;;;;;;;11.53;10.90;;;;;;;16.54;47.51;99690.22;5116775;28;20235;-71
2022/04/24 10:51:30;;;;;;;11.87;11.17;;;;;;;16.43;46.84;99688.50;5117345;28;20192;-71
2022/04/24 10:54:08;;;;;;;10.97;10.37;;;;;;;16.54;47.83;99687.59;5116694;28;20219;-71
2022/04/24 10:56:36;;;;;;;13.97;12.50;;;;;;;16.37;47.16;99683.69;5117170;28;20257;-70
2022/04/24 10:59:08;;;;;;;11.30;10.87;;;;;;;16.55;47.35;99683.16;5116632;28;20193;-71
2022/04/24 11:01:36;;;;;;;11.40;10.77;;;;;;;16.67;47.58;99676.84;5116933;28;20199;-71
2022/04/24 11:04:05;;;;;;;10.40;10.00;;;;;;;16.77;46.37;99686.53;5116795;28;20196;-72
2022/04/24 11:06:31;;;;;;;10.87;10.40;;;;;;;16.85;46.72;99687.72;5116556;28;20209;-71
2022/04/24 11:09:13;;;;;;;10.77;9.93;;;;;;;16.78;45.01;99688.22;5116645;28;20238;-71
2022/04/24 11:11:46;;;;;;;11.63;10.47;;;;;;;16.84;45.23;99696.63;5116797;28;20189;-71
2022/04/24 11:14:21;;;;;;;10.77;10.10;;;;;;;16.71;45.60;99687.06;5116577;28;20185;-71
2022/04/24 11:16:58;;;;;;;11.57;10.63;;;;;;;16.86;46.35;99689.38;5116241;28;20262;-72
2022/04/24 11:19:34;;;;;;;11.40;10.63;;;;;;;16.71;44.88;99686.22;5117088;28;20175;-71
2022/04/24 11:22:06;;;;;;;11.37;10.77;;;;;;;16.42;44.25;99685.94;5116484;28;20230;-71
2022/04/24 11:24:38;;;;;;;10.13;9.77;;;;;;;16.29;45.51;99687.91;5116479;28;20631;-71
2022/04/24 11:27:11;;;;;;;11.00;9.93;;;;;;;16.42;44.71;99686.78;5116144;28;20212;-71
2022/04/24 11:29:38;;;;;;;13.00;11.20;;;;;;;16.57;45.98;99673.28;5116316;28;20178;-72
2022/04/24 11:32:09;;;;;;;11.17;10.20;;;;;;;16.77;46.47;99675.13;5116054;28;20209;-71